createdAt,value
2023-05-21T00:01:05.867Z,96428.16
2023-05-21T00:03:13.841Z,96420.94
2023-05-21T00:05:18.397Z,96415.59
2023-05-21T00:07:23.242Z,96411.28
2023-05-21T00:09:26.064Z,96412.34
2023-05-21T00:11:28.935Z,96408.63
2023-05-21T00:13:31.802Z,96412.91
2023-05-21T00:15:34.843Z,96400.59
2023-05-21T00:17:38.121Z,96409.97
2023-05-21T00:19:40.950Z,96413.47
2023-05-21T00:21:45.872Z,96409.97
2023-05-21T00:23:50.643Z,96419.88
2023-05-21T00:25:53.741Z,96408.84
2023-05-21T00:27:56.951Z,96405.06
2023-05-21T00:29:59.817Z,96405.31
2023-05-21T00:32:02.626Z,96409.88
2023-05-21T00:34:05.571Z,96404.75
2023-05-21T00:36:08.803Z,96401.78
2023-05-21T00:38:11.773Z,96401.47
2023-05-21T00:40:16.605Z,96401.47
2023-05-21T00:42:19.403Z,96397.72
2023-05-21T00:44:22.158Z,96391.56
2023-05-21T00:46:25.187Z,96394.50
2023-05-21T00:48:28.859Z,96390.22
2023-05-21T00:50:32.186Z,96393.94
2023-05-21T00:52:41.526Z,96388.03
2023-05-21T00:54:44.550Z,96390.16
2023-05-21T00:56:49.372Z,96394.94
2023-05-21T00:58:52.785Z,96396.25
2023-05-21T01:00:56.830Z,96392.22
2023-05-21T01:02:59.900Z,96395.41
2023-05-21T01:05:04.449Z,96392.97
2023-05-21T01:07:09.437Z,96393.19
2023-05-21T01:09:12.508Z,96389.72
2023-05-21T01:11:15.992Z,96385.19
2023-05-21T01:13:22.478Z,96386.50
2023-05-21T01:15:26.053Z,96384.25
2023-05-21T01:17:31.682Z,96383.94
2023-05-21T01:19:35.690Z,96387.97
2023-05-21T01:21:43.350Z,96394.94
2023-05-21T01:23:47.516Z,96392.03
2023-05-21T01:25:50.601Z,96385.06
2023-05-21T01:27:53.503Z,96392.28
2023-05-21T01:29:57.174Z,96394.94
2023-05-21T01:32:09.715Z,96396.81
2023-05-21T01:34:16.238Z,96401.09
2023-05-21T01:36:26.735Z,96404.03
2023-05-21T01:38:35.036Z,96403.22
2023-05-21T01:40:45.968Z,96405.09
2023-05-21T01:42:49.683Z,96403.47
2023-05-21T01:44:56.047Z,96403.47
2023-05-21T01:47:00.482Z,96404.53
2023-05-21T01:49:04.029Z,96403.97
2023-05-21T01:51:07.618Z,96408.50
2023-05-21T01:53:10.532Z,96397.25
2023-05-21T01:55:13.563Z,96399.38
2023-05-21T01:57:18.468Z,96393.19
2023-05-21T01:59:21.364Z,96400.41
2023-05-21T02:01:24.375Z,96397.72
2023-05-21T02:03:28.093Z,96398.53
2023-05-21T02:05:31.204Z,96401.00
2023-05-21T02:07:33.987Z,96395.66
2023-05-21T02:09:36.916Z,96403.66
2023-05-21T02:11:39.990Z,96403.09
2023-05-21T02:13:46.161Z,96398.31
2023-05-21T02:15:49.728Z,96399.94
2023-05-21T02:17:53.055Z,96399.94
2023-05-21T02:19:55.661Z,96408.50
2023-05-21T02:21:58.636Z,96406.34
2023-05-21T02:24:01.497Z,96404.94
2023-05-21T02:26:04.422Z,96403.09
2023-05-21T02:28:07.435Z,96399.84
2023-05-21T02:30:13.930Z,96389.16
2023-05-21T02:32:16.892Z,96405.44
2023-05-21T02:34:20.925Z,96399.81
2023-05-21T02:36:25.266Z,96407.22
2023-05-21T02:38:28.047Z,96394.69
2023-05-21T02:40:31.188Z,96396.53
2023-05-21T02:42:34.433Z,96392.25
2023-05-21T02:44:37.261Z,96394.09
2023-05-21T02:46:41.714Z,96390.63
2023-05-21T02:48:44.608Z,96391.66
2023-05-21T02:50:47.623Z,96390.06
2023-05-21T02:52:50.665Z,96391.91
2023-05-21T02:54:53.757Z,96392.47
2023-05-21T02:56:56.657Z,96391.41
2023-05-21T02:58:59.625Z,96390.63
2023-05-21T03:01:02.594Z,96390.63
2023-05-21T03:03:06.900Z,96398.63
2023-05-21T03:05:10.345Z,96398.41
2023-05-21T03:07:13.980Z,96392.25
2023-05-21T03:09:16.758Z,96382.59
2023-05-21T03:11:20.332Z,96389.81
2023-05-21T03:13:23.213Z,96385.25
2023-05-21T03:15:26.187Z,96380.97
2023-05-21T03:17:29.169Z,96386.56
2023-05-21T03:19:34.579Z,96386.03
2023-05-21T03:21:37.365Z,96384.66
2023-05-21T03:23:41.714Z,96376.88
2023-05-21T03:25:45.884Z,96383.50
2023-05-21T03:27:48.807Z,96380.03
2023-05-21T03:29:52.019Z,96384.56
2023-05-21T03:31:55.590Z,96384.00
2023-05-21T03:33:58.429Z,96390.41
2023-05-21T03:36:02.832Z,96384.50
2023-05-21T03:38:05.837Z,96388.00
2023-05-21T03:40:09.741Z,96391.22
2023-05-21T03:42:14.268Z,96385.63
2023-05-21T03:44:17.126Z,96390.16
2023-05-21T03:46:20.007Z,96386.69
2023-05-21T03:48:23.089Z,96389.34
2023-05-21T03:50:25.986Z,96388.56
2023-05-21T03:52:30.187Z,96395.19
2023-05-21T03:54:33.030Z,96408.56
2023-05-21T03:56:35.869Z,96402.66
2023-05-21T03:58:38.695Z,96413.59
2023-05-21T04:00:43.323Z,96403.13
2023-05-21T04:02:46.967Z,96409.53
2023-05-21T04:04:51.616Z,96395.38
2023-05-21T04:06:55.361Z,96412.19
2023-05-21T04:08:59.547Z,96417.56
2023-05-21T04:11:02.364Z,96421.03
2023-05-21T04:13:05.669Z,96424.75
2023-05-21T04:15:09.506Z,96418.59
2023-05-21T04:17:13.658Z,96422.09
2023-05-21T04:19:16.647Z,96427.19
2023-05-21T04:21:19.584Z,96421.28
2023-05-21T04:23:23.620Z,96421.28
2023-05-21T04:25:28.078Z,96425.00
2023-05-21T04:27:30.854Z,96431.72
2023-05-21T04:29:33.683Z,96430.66
2023-05-21T04:31:36.538Z,96433.91
2023-05-21T04:33:42.049Z,96429.38
2023-05-21T04:35:46.245Z,96431.00
2023-05-21T04:37:49.085Z,96434.22
2023-05-21T04:39:51.923Z,96440.38
2023-05-21T04:41:56.513Z,96439.31
2023-05-21T04:43:59.516Z,96446.53
2023-05-21T04:46:02.277Z,96446.03
2023-05-21T04:48:05.153Z,96451.38
2023-05-21T04:50:10.461Z,96449.31
2023-05-21T04:52:13.501Z,96453.59
2023-05-21T04:54:16.565Z,96457.38
2023-05-21T04:56:19.376Z,96458.44
2023-05-21T04:58:23.558Z,96460.06
2023-05-21T05:00:26.600Z,96459.56
2023-05-21T05:02:29.616Z,96461.97
2023-05-21T05:04:32.605Z,96453.75
2023-05-21T05:06:35.385Z,96460.47
2023-05-21T05:08:38.228Z,96461.84
2023-05-21T05:10:40.976Z,96467.75
2023-05-21T05:12:44.032Z,96467.75
2023-05-21T05:14:48.270Z,96464.03
2023-05-21T05:16:51.109Z,96463.47
2023-05-21T05:18:54.111Z,96462.66
2023-05-21T05:20:58.047Z,96465.06
2023-05-21T05:23:00.808Z,96469.88
2023-05-21T05:25:03.731Z,96476.03
2023-05-21T05:27:06.927Z,96473.09
2023-05-21T05:29:09.782Z,96471.78
2023-05-21T05:31:14.109Z,96475.84
2023-05-21T05:33:17.001Z,96470.81
2023-05-21T05:35:19.809Z,96467.91
2023-05-21T05:37:22.589Z,96466.84
2023-05-21T05:39:25.828Z,96482.63
2023-05-21T05:41:28.595Z,96467.91
2023-05-21T05:43:31.341Z,96479.94
2023-05-21T05:45:34.297Z,96464.72
2023-05-21T05:47:40.941Z,96470.63
2023-05-21T05:49:43.909Z,96465.88
2023-05-21T05:51:46.848Z,96469.09
2023-05-21T05:53:49.631Z,96462.94
2023-05-21T05:55:52.200Z,96468.28
2023-05-21T05:57:55.017Z,96471.22
2023-05-21T05:59:58.455Z,96465.59
2023-05-21T06:02:01.604Z,96466.16
2023-05-21T06:04:06.391Z,96472.63
2023-05-21T06:06:09.168Z,96474.03
2023-05-21T06:08:12.002Z,96479.13
2023-05-21T06:10:15.231Z,96470.59
2023-05-21T06:12:18.120Z,96469.78
2023-05-21T06:14:21.001Z,96471.41
2023-05-21T06:16:23.907Z,96471.94
2023-05-21T06:18:26.790Z,96472.03
2023-05-21T06:20:30.921Z,96480.06
2023-05-21T06:22:34.261Z,96473.66
2023-05-21T06:24:37.266Z,96476.88
2023-05-21T06:26:40.342Z,96481.47
2023-05-21T06:28:43.269Z,96475.88
2023-05-21T06:30:46.088Z,96474.03
2023-05-21T06:32:48.929Z,96478.31
2023-05-21T06:34:51.951Z,96480.19
2023-05-21T06:36:56.157Z,96483.91
2023-05-21T06:38:59.182Z,96477.75
2023-05-21T06:41:03.948Z,96476.13
2023-05-21T06:43:06.749Z,96482.06
2023-05-21T06:45:10.526Z,96476.72
2023-05-21T06:47:13.453Z,96470.53
2023-05-21T06:49:16.525Z,96478.06
2023-05-21T06:51:19.294Z,96475.94
2023-05-21T06:53:23.519Z,96473.28
2023-05-21T06:55:26.414Z,96475.69
2023-05-21T06:57:29.202Z,96470.34
2023-05-21T06:59:32.088Z,96475.44
2023-05-21T07:01:35.474Z,96477.59
2023-05-21T07:03:38.686Z,96471.22
2023-05-21T07:05:41.532Z,96479.56
2023-05-21T07:07:46.255Z,96474.19
2023-05-21T07:09:50.415Z,96470.22
2023-05-21T07:11:53.429Z,96473.69
2023-05-21T07:13:57.801Z,96474.00
2023-05-21T07:16:00.609Z,96468.16
2023-05-21T07:18:03.584Z,96466.84
2023-05-21T07:20:07.680Z,96461.78
2023-05-21T07:22:12.504Z,96461.31
2023-05-21T07:24:15.604Z,96469.88
2023-05-21T07:26:20.007Z,96467.75
2023-05-21T07:28:22.871Z,96469.38
2023-05-21T07:30:25.912Z,96474.25
2023-05-21T07:32:29.221Z,96467.03
2023-05-21T07:34:32.980Z,96468.91
2023-05-21T07:36:35.951Z,96470.84
2023-05-21T07:38:40.108Z,96470.03
2023-05-21T07:40:42.914Z,96464.97
2023-05-21T07:42:47.142Z,96468.75
2023-05-21T07:44:49.878Z,96470.63
2023-05-21T07:46:52.644Z,96464.19
2023-05-21T07:48:55.558Z,96463.72
2023-05-21T07:51:00.049Z,96458.91
2023-05-21T07:53:03.047Z,96463.75
2023-05-21T07:55:07.396Z,96451.97
2023-05-21T07:57:10.219Z,96454.66
2023-05-21T07:59:15.326Z,96462.97
2023-05-21T08:01:18.601Z,96467.53
2023-05-21T08:03:21.872Z,96450.91
2023-05-21T08:05:25.905Z,96466.16
2023-05-21T08:07:29.405Z,96463.50
2023-05-21T08:09:32.794Z,96464.84
2023-05-21T08:11:35.645Z,96461.09
2023-05-21T08:13:38.608Z,96463.25
2023-05-21T08:15:42.832Z,96466.97
2023-05-21T08:17:45.861Z,96468.09
2023-05-21T08:19:48.908Z,96468.91
2023-05-21T08:21:52.972Z,96464.91
2023-05-21T08:23:56.137Z,96474.03
2023-05-21T08:25:59.153Z,96466.34
2023-05-21T08:28:01.990Z,96471.44
2023-05-21T08:30:05.570Z,96467.69
2023-05-21T08:32:10.405Z,96473.03
2023-05-21T08:34:13.309Z,96473.03
2023-05-21T08:36:16.398Z,96468.19
2023-05-21T08:38:19.209Z,96472.25
2023-05-21T08:40:22.132Z,96470.91
2023-05-21T08:42:37.591Z,96458.59
2023-05-21T08:44:46.532Z,96459.69
2023-05-21T08:46:52.084Z,96462.09
2023-05-21T08:48:56.356Z,96461.28
2023-05-21T08:51:01.323Z,96472.81
2023-05-21T08:53:15.476Z,96468.53
2023-05-21T08:55:26.909Z,96463.44
2023-05-21T08:57:31.640Z,96458.06
2023-05-21T08:59:36.896Z,96470.41
2023-05-21T09:01:42.307Z,96465.03
2023-05-21T09:03:45.644Z,96462.91
2023-05-21T09:05:51.761Z,96462.09
2023-05-21T09:08:02.119Z,96457.00
2023-05-21T09:10:08.352Z,96466.66
2023-05-21T09:12:11.470Z,96465.59
2023-05-21T09:14:16.362Z,96470.94
2023-05-21T09:16:19.352Z,96472.34
2023-05-21T09:18:21.954Z,96470.47
2023-05-21T09:20:26.747Z,96472.88
2023-05-21T09:22:31.094Z,96467.00
2023-05-21T09:24:36.249Z,96459.78
2023-05-21T09:26:41.940Z,96465.69
2023-05-21T09:28:44.939Z,96468.91
2023-05-21T09:30:49.089Z,96472.38
2023-05-21T09:32:54.989Z,96474.56
2023-05-21T09:34:57.946Z,96467.91
2023-05-21T09:37:01.516Z,96467.09
2023-05-21T09:39:05.745Z,96464.16
2023-05-21T09:41:08.629Z,96474.31
2023-05-21T09:43:15.840Z,96461.66
2023-05-21T09:45:22.588Z,96464.94
2023-05-21T09:47:25.668Z,96469.47
2023-05-21T09:49:28.624Z,96475.06
2023-05-21T09:51:32.008Z,96464.94
2023-05-21T09:53:34.984Z,96469.75
2023-05-21T09:55:39.099Z,96482.09
2023-05-21T09:57:43.415Z,96468.97
2023-05-21T09:59:46.510Z,96469.25
2023-05-21T10:01:52.474Z,96475.41
2023-05-21T10:03:57.369Z,96482.66
2023-05-21T10:06:01.799Z,96475.97
2023-05-21T10:08:05.985Z,96473.28
2023-05-21T10:10:14.819Z,96467.13
2023-05-21T10:12:19.585Z,96482.38
2023-05-21T10:14:25.759Z,96483.19
2023-05-21T10:16:31.690Z,96476.22
2023-05-21T10:18:34.961Z,96472.19
2023-05-21T10:20:38.819Z,96466.81
2023-05-21T10:22:42.754Z,96462.28
2023-05-21T10:24:46.294Z,96472.72
2023-05-21T10:26:50.077Z,96466.31
2023-05-21T10:28:57.180Z,96473.53
2023-05-21T10:31:00.466Z,96471.13
2023-05-21T10:33:05.632Z,96464.41
2023-05-21T10:35:10.533Z,96466.53
2023-05-21T10:37:14.584Z,96464.94
2023-05-21T10:39:20.740Z,96468.66
2023-05-21T10:41:25.015Z,96464.41
2023-05-21T10:43:51.277Z,96463.09
2023-05-21T10:46:44.734Z,96466.88
2023-05-21T10:49:26.122Z,96456.72
2023-05-21T10:51:31.485Z,96463.13
2023-05-21T10:53:48.003Z,96470.09
2023-05-21T10:56:06.656Z,96450.81
2023-05-21T10:58:31.297Z,96452.16
2023-05-21T11:00:34.666Z,96448.16
2023-05-21T11:02:39.882Z,96452.97
2023-05-21T11:04:45.377Z,96451.91
2023-05-21T11:06:49.425Z,96463.75
2023-05-21T11:08:55.356Z,96462.44
2023-05-21T11:10:59.515Z,96461.94
2023-05-21T11:13:16.608Z,96449.88
2023-05-21T11:15:19.541Z,96454.19
2023-05-21T11:19:51.781Z,96462.28
2023-05-21T11:21:56.666Z,96458.59
2023-05-21T11:24:04.932Z,96461.81
2023-05-21T11:26:08.220Z,96457.00
2023-05-21T11:28:11.127Z,96453.81
2023-05-21T11:30:17.324Z,96453.53
2023-05-21T11:32:20.603Z,96452.47
2023-05-21T11:34:28.806Z,96462.94
2023-05-21T11:36:36.063Z,96463.19
2023-05-21T11:38:39.042Z,96451.94
2023-05-21T11:40:51.791Z,96462.69
2023-05-21T11:42:55.772Z,96457.31
2023-05-21T11:44:59.793Z,96453.28
2023-05-21T11:47:03.285Z,96450.34
2023-05-21T11:49:06.766Z,96446.34
2023-05-21T11:51:09.844Z,96453.88
2023-05-21T11:53:14.090Z,96450.41
2023-05-21T11:55:22.071Z,96449.63
2023-05-21T11:57:30.601Z,96442.66
2023-05-21T11:59:34.808Z,96450.44
2023-05-21T12:01:37.610Z,96449.91
2023-05-21T12:03:41.935Z,96449.41
2023-05-21T12:05:48.900Z,96444.84
2023-05-21T12:07:52.108Z,96449.69
2023-05-21T12:09:56.478Z,96444.06
2023-05-21T12:11:59.348Z,96440.03
2023-05-21T12:14:02.648Z,96441.66
2023-05-21T12:16:07.088Z,96441.66
2023-05-21T12:18:10.182Z,96442.22
2023-05-21T12:20:16.580Z,96441.94
2023-05-21T12:22:19.485Z,96439.00
2023-05-21T12:24:22.897Z,96440.59
2023-05-21T12:26:28.217Z,96435.78
2023-05-21T12:28:31.213Z,96435.78
2023-05-21T12:30:34.296Z,96428.53
2023-05-21T12:32:38.165Z,96425.56
2023-05-21T12:34:43.148Z,96427.44
2023-05-21T12:36:48.315Z,96432.59
2023-05-21T12:38:51.634Z,96424.25
2023-05-21T12:40:54.830Z,96429.13
2023-05-21T12:42:59.242Z,96432.63
2023-05-21T12:45:06.707Z,96427.78
2023-05-21T12:47:09.833Z,96429.41
2023-05-21T12:49:37.301Z,96424.84
2023-05-21T12:51:40.653Z,96427.78
2023-05-21T12:53:44.172Z,96434.75
2023-05-21T12:55:47.177Z,96430.75
2023-05-21T12:57:51.844Z,96426.44
2023-05-21T12:59:57.543Z,96429.94
2023-05-21T13:02:01.664Z,96432.06
2023-05-21T13:04:07.735Z,96437.41
2023-05-21T13:06:10.587Z,96432.06
2023-05-21T13:08:15.450Z,96437.41
2023-05-21T13:10:18.549Z,96433.13
2023-05-21T13:12:25.978Z,96426.38
2023-05-21T13:14:28.824Z,96429.91
2023-05-21T13:16:33.174Z,96433.13
2023-05-21T13:18:36.010Z,96432.06
2023-05-21T13:20:39.629Z,96429.13
2023-05-21T13:22:43.693Z,96427.78
2023-05-21T13:24:46.427Z,96432.63
2023-05-21T13:26:49.496Z,96420.56
2023-05-21T13:28:52.388Z,96422.72
2023-05-21T13:30:56.035Z,96420.28
2023-05-21T13:33:00.545Z,96420.59
2023-05-21T13:35:03.610Z,96418.16
2023-05-21T13:37:06.425Z,96424.06
2023-05-21T13:39:09.366Z,96419.78
2023-05-21T13:41:12.342Z,96424.63
2023-05-21T13:43:15.198Z,96420.34
2023-05-21T13:45:20.098Z,96425.72
2023-05-21T13:47:23.016Z,96418.97
2023-05-21T13:49:27.200Z,96412.25
2023-05-21T13:51:38.487Z,96413.91
2023-05-21T13:53:41.800Z,96418.72
2023-05-21T13:55:44.649Z,96408.00
2023-05-21T13:57:47.455Z,96425.19
2023-05-21T13:59:50.592Z,96421.69
2023-05-21T14:01:55.729Z,96414.16
2023-05-21T14:04:04.217Z,96414.97
2023-05-21T14:06:08.719Z,96418.75
2023-05-21T14:08:11.716Z,96418.19
2023-05-21T14:10:14.486Z,96412.56
2023-05-21T14:12:17.425Z,96416.56
2023-05-21T14:14:20.598Z,96413.91
2023-05-21T14:16:25.216Z,96415.50
2023-05-21T14:18:28.178Z,96404.75
2023-05-21T14:20:31.050Z,96418.19
2023-05-21T14:22:35.366Z,96415.50
2023-05-21T14:24:38.215Z,96418.19
2023-05-21T14:26:42.005Z,96411.78
2023-05-21T14:28:45.559Z,96411.22
2023-05-21T14:30:48.449Z,96421.97
2023-05-21T14:32:51.353Z,96416.03
2023-05-21T14:34:54.224Z,96414.16
2023-05-21T14:36:57.079Z,96416.59
2023-05-21T14:39:01.410Z,96411.72
2023-05-21T14:41:04.359Z,96416.56
2023-05-21T14:43:07.628Z,96422.47
2023-05-21T14:45:18.581Z,96411.47
2023-05-21T14:47:22.351Z,96413.91
2023-05-21T14:49:25.140Z,96413.38
2023-05-21T14:51:28.028Z,96406.91
2023-05-21T14:53:30.997Z,96405.84
2023-05-21T14:55:37.230Z,96401.25
2023-05-21T14:57:41.431Z,96405.28
2023-05-21T14:59:44.292Z,96403.13
2023-05-21T15:01:47.773Z,96405.31
2023-05-21T15:03:50.692Z,96404.22
2023-05-21T15:05:53.918Z,96393.47
2023-05-21T15:07:57.272Z,96395.09
2023-05-21T15:10:00.107Z,96395.09
2023-05-21T15:12:04.851Z,96395.09
2023-05-21T15:14:07.770Z,96401.28
2023-05-21T15:16:10.831Z,96393.75
2023-05-21T15:18:14.003Z,96391.84
2023-05-21T15:20:16.886Z,96403.94
2023-05-21T15:22:19.990Z,96393.19
2023-05-21T15:24:22.758Z,96399.38
2023-05-21T15:26:26.878Z,96400.19
2023-05-21T15:28:31.158Z,96406.13
2023-05-21T15:30:34.147Z,96404.25
2023-05-21T15:32:37.000Z,96405.56
2023-05-21T15:34:39.977Z,96400.19
2023-05-21T15:36:42.760Z,96403.69
2023-05-21T15:38:46.290Z,96404.50
2023-05-21T15:40:49.102Z,96406.09
2023-05-21T15:42:52.057Z,96404.22
2023-05-21T15:44:56.274Z,96403.94
2023-05-21T15:46:59.071Z,96403.16
2023-05-21T15:49:02.246Z,96402.88
2023-05-21T15:51:05.166Z,96398.31
2023-05-21T15:53:07.984Z,96398.31
2023-05-21T15:55:11.118Z,96406.38
2023-05-21T15:57:14.001Z,96404.75
2023-05-21T15:59:16.840Z,96404.75
2023-05-21T16:01:21.448Z,96413.63
2023-05-21T16:03:24.488Z,96410.13
2023-05-21T16:05:28.004Z,96410.13
2023-05-21T16:07:30.862Z,96409.63
2023-05-21T16:09:33.703Z,96409.84
2023-05-21T16:11:36.475Z,96412.53
2023-05-21T16:13:39.524Z,96411.75
2023-05-21T16:15:42.571Z,96413.38
2023-05-21T16:17:47.280Z,96411.50
2023-05-21T16:19:50.176Z,96409.63
2023-05-21T16:21:52.923Z,96411.50
2023-05-21T16:23:56.244Z,96412.31
2023-05-21T16:25:59.264Z,96407.47
2023-05-21T16:28:02.078Z,96405.31
2023-05-21T16:30:07.454Z,96409.34
2023-05-21T16:32:12.819Z,96411.22
2023-05-21T16:34:17.855Z,96408.00
2023-05-21T16:36:20.666Z,96404.78
2023-05-21T16:38:23.696Z,96403.13
2023-05-21T16:40:26.803Z,96400.75
2023-05-21T16:42:29.718Z,96396.72
2023-05-21T16:44:32.762Z,96397.53
2023-05-21T16:46:36.289Z,96396.44
2023-05-21T16:48:39.839Z,96397.81
2023-05-21T16:50:44.223Z,96397.25
2023-05-21T16:52:47.146Z,96403.44
2023-05-21T16:54:49.950Z,96399.41
2023-05-21T16:56:54.508Z,96403.69
2023-05-21T16:58:57.445Z,96402.63
2023-05-21T17:01:00.400Z,96396.72
2023-05-21T17:03:03.638Z,96405.59
2023-05-21T17:05:07.624Z,96401.00
2023-05-21T17:07:11.797Z,96396.72
2023-05-21T17:09:15.309Z,96401.00
2023-05-21T17:11:19.509Z,96397.75
2023-05-21T17:13:23.238Z,96402.59
2023-05-21T17:15:27.484Z,96404.50
2023-05-21T17:17:30.299Z,96406.91
2023-05-21T17:19:33.485Z,96409.59
2023-05-21T17:21:36.736Z,96412.28
2023-05-21T17:23:42.910Z,96410.41
2023-05-21T17:25:45.841Z,96408.50
2023-05-21T17:27:48.862Z,96420.91
2023-05-21T17:29:51.752Z,96419.84
2023-05-21T17:31:54.697Z,96426.31
2023-05-21T17:33:57.658Z,96430.88
2023-05-21T17:36:01.282Z,96424.41
2023-05-21T17:38:04.149Z,96425.22
2023-05-21T17:40:09.852Z,96427.91
2023-05-21T17:42:12.834Z,96433.81
2023-05-21T17:44:16.746Z,96424.94
2023-05-21T17:46:20.045Z,96429.25
2023-05-21T17:48:23.673Z,96429.50
2023-05-21T17:50:29.093Z,96430.31
2023-05-21T17:52:31.934Z,96431.38
2023-05-21T17:54:35.095Z,96432.75
2023-05-21T17:56:39.892Z,96440.81
2023-05-21T17:58:42.803Z,96448.34
2023-05-21T18:00:45.713Z,96448.06
2023-05-21T18:02:48.766Z,96456.38
2023-05-21T18:04:51.737Z,96454.22
2023-05-21T18:06:54.631Z,96454.78
2023-05-21T18:08:57.729Z,96452.09
2023-05-21T18:11:01.551Z,96451.53
2023-05-21T18:13:05.820Z,96459.63
2023-05-21T18:15:09.912Z,96454.50
2023-05-21T18:17:13.109Z,96470.91
2023-05-21T18:19:16.565Z,96458.81
2023-05-21T18:21:19.502Z,96459.09
2023-05-21T18:23:22.388Z,96461.25
2023-05-21T18:25:25.199Z,96452.63
2023-05-21T18:27:28.387Z,96459.59
2023-05-21T18:29:33.274Z,96460.16
2023-05-21T18:31:36.303Z,96472.53
2023-05-21T18:33:39.301Z,96470.41
2023-05-21T18:35:42.266Z,96466.63
2023-05-21T18:37:46.798Z,96478.47
2023-05-21T18:39:49.620Z,96470.41
2023-05-21T18:42:01.554Z,96477.91
2023-05-21T18:44:08.355Z,96480.06
2023-05-21T18:46:12.730Z,96481.09
2023-05-21T18:48:16.003Z,96479.50
2023-05-21T18:50:19.552Z,96486.75
2023-05-21T18:52:22.398Z,96491.59
2023-05-21T18:54:25.611Z,96494.56
2023-05-21T18:56:28.477Z,96502.09
2023-05-21T18:58:33.232Z,96506.91
2023-05-21T19:00:36.277Z,96510.66
2023-05-21T19:02:41.083Z,96501.78
2023-05-21T19:04:44.118Z,96503.13
2023-05-21T19:06:47.761Z,96509.31
2023-05-21T19:08:50.620Z,96513.09
2023-05-21T19:10:53.616Z,96506.38
2023-05-21T19:12:57.276Z,96523.03
2023-05-21T19:15:00.052Z,96504.47
2023-05-21T19:17:03.008Z,96504.47
2023-05-21T19:19:07.391Z,96495.88
2023-05-21T19:21:10.581Z,96505.56
2023-05-21T19:23:13.531Z,96516.31
2023-05-21T19:25:16.670Z,96517.13
2023-05-21T19:27:19.810Z,96516.03
2023-05-21T19:29:22.735Z,96519.53
2023-05-21T19:31:26.242Z,96517.66
2023-05-21T19:33:29.166Z,96514.97
2023-05-21T19:35:33.446Z,96518.19
2023-05-21T19:37:36.382Z,96525.19
2023-05-21T19:39:40.442Z,96519.78
2023-05-21T19:41:43.938Z,96527.88
2023-05-21T19:43:47.015Z,96515.50
2023-05-21T19:45:51.253Z,96523.03
2023-05-21T19:47:54.251Z,96519.00
2023-05-21T19:49:57.112Z,96525.44
2023-05-21T19:52:02.529Z,96527.88
2023-05-21T19:54:05.452Z,96526.50
2023-05-21T19:56:08.693Z,96539.16
2023-05-21T19:58:13.528Z,96531.63
2023-05-21T20:00:17.807Z,96538.63
2023-05-21T20:02:21.992Z,96542.38
2023-05-21T20:04:25.844Z,96545.34
2023-05-21T20:06:29.940Z,96551.78
2023-05-21T20:08:34.484Z,96549.38
2023-05-21T20:10:37.703Z,96563.88
2023-05-21T20:12:41.174Z,96561.19
2023-05-21T20:14:46.760Z,96564.97
2023-05-21T20:16:49.828Z,96563.84
2023-05-21T20:18:56.946Z,96571.91
2023-05-21T20:21:00.542Z,96565.72
2023-05-21T20:23:03.570Z,96567.88
2023-05-21T20:25:10.435Z,96562.50
2023-05-21T20:27:14.854Z,96572.44
